sensor_id;sensor_type;location;lat;lon;timestamp;temperature;humidity
8888;DHT22;4480;52.370;9.748;2024-01-27T00:00:31;5.50;99.90
8888;DHT22;4480;52.370;9.748;2024-01-27T00:02:58;5.50;99.90
8888;DHT22;4480;52.370;9.748;2024-01-27T00:05:25;5.40;99.90
8888;DHT22;4480;52.370;9.748;2024-01-27T00:07:51;5.50;99.90
8888;DHT22;4480;52.370;9.748;2024-01-27T00:10:18;5.50;99.90
8888;DHT22;4480;52.370;9.748;2024-01-27T00:12:46;5.50;99.90
8888;DHT22;4480;52.370;9.748;2024-01-27T00:15:13;5.50;99.90
8888;DHT22;4480;52.370;9.748;2024-01-27T00:17:40;5.50;99.90
8888;DHT22;4480;52.370;9.748;2024-01-27T00:20:07;5.50;99.90
8888;DHT22;4480;52.370;9.748;2024-01-27T00:22:34;5.50;99.90
8888;DHT22;4480;52.370;9.748;2024-01-27T00:25:01;5.50;99.90
8888;DHT22;4480;52.370;9.748;2024-01-27T00:27:28;5.50;99.90
8888;DHT22;4480;52.370;9.748;2024-01-27T00:29:56;5.50;99.90
8888;DHT22;4480;52.370;9.748;2024-01-27T00:32:22;5.50;99.90
8888;DHT22;4480;52.370;9.748;2024-01-27T00:34:49;5.50;99.90
8888;DHT22;4480;52.370;9.748;2024-01-27T00:37:16;5.50;99.90
8888;DHT22;4480;52.370;9.748;2024-01-27T00:39:43;5.50;99.90
8888;DHT22;4480;52.370;9.748;2024-01-27T00:42:10;5.50;99.90
8888;DHT22;4480;52.370;9.748;2024-01-27T00:44:37;5.50;99.90
8888;DHT22;4480;52.370;9.748;2024-01-27T00:47:05;5.50;99.90
8888;DHT22;4480;52.370;9.748;2024-01-27T00:49:32;5.60;99.90
8888;DHT22;4480;52.370;9.748;2024-01-27T00:51:59;5.60;99.90
8888;DHT22;4480;52.370;9.748;2024-01-27T00:54:25;5.60;99.90
8888;DHT22;4480;52.370;9.748;2024-01-27T00:56:52;5.60;99.90
8888;DHT22;4480;52.370;9.748;2024-01-27T00:59:19;5.60;99.90
8888;DHT22;4480;52.370;9.748;2024-01-27T01:01:46;5.60;99.90
8888;DHT22;4480;52.370;9.748;2024-01-27T01:04:14;5.60;99.90
8888;DHT22;4480;52.370;9.748;2024-01-27T01:06:41;5.50;99.90
8888;DHT22;4480;52.370;9.748;2024-01-27T01:09:08;5.50;99.90
8888;DHT22;4480;52.370;9.748;2024-01-27T01:11:35;5.50;99.90
8888;DHT22;4480;52.370;9.748;2024-01-27T01:14:02;5.40;99.90
8888;DHT22;4480;52.370;9.748;2024-01-27T01:16:29;5.30;99.90
8888;DHT22;4480;52.370;9.748;2024-01-27T01:18:56;5.30;99.90
8888;DHT22;4480;52.370;9.748;2024-01-27T01:21:24;5.10;99.90
8888;DHT22;4480;52.370;9.748;2024-01-27T01:23:50;5.10;99.90
8888;DHT22;4480;52.370;9.748;2024-01-27T01:26:17;5.00;99.90
8888;DHT22;4480;52.370;9.748;2024-01-27T01:28:44;4.90;99.90
8888;DHT22;4480;52.370;9.748;2024-01-27T01:31:11;4.80;99.90
8888;DHT22;4480;52.370;9.748;2024-01-27T01:33:38;4.70;99.90
8888;DHT22;4480;52.370;9.748;2024-01-27T01:36:05;4.70;99.90
8888;DHT22;4480;52.370;9.748;2024-01-27T01:38:33;4.60;99.90
8888;DHT22;4480;52.370;9.748;2024-01-27T01:41:00;4.60;99.90
8888;DHT22;4480;52.370;9.748;2024-01-27T01:43:27;4.50;99.90
8888;DHT22;4480;52.370;9.748;2024-01-27T01:45:53;4.40;99.90
8888;DHT22;4480;52.370;9.748;2024-01-27T01:48:20;4.40;99.90
8888;DHT22;4480;52.370;9.748;2024-01-27T01:50:47;4.30;99.90
8888;DHT22;4480;52.370;9.748;2024-01-27T01:53:14;4.30;99.90
8888;DHT22;4480;52.370;9.748;2024-01-27T01:55:43;4.20;99.90
8888;DHT22;4480;52.370;9.748;2024-01-27T01:58:09;4.20;99.90
8888;DHT22;4480;52.370;9.748;2024-01-27T02:00:36;4.20;99.90
8888;DHT22;4480;52.370;9.748;2024-01-27T02:03:03;4.10;99.90
8888;DHT22;4480;52.370;9.748;2024-01-27T02:05:31;4.10;99.90
8888;DHT22;4480;52.370;9.748;2024-01-27T02:07:58;4.10;99.90
8888;DHT22;4480;52.370;9.748;2024-01-27T02:10:26;4.00;99.90
8888;DHT22;4480;52.370;9.748;2024-01-27T02:12:54;4.00;99.90
8888;DHT22;4480;52.370;9.748;2024-01-27T02:15:21;4.00;99.90
8888;DHT22;4480;52.370;9.748;2024-01-27T02:17:48;4.00;99.90
8888;DHT22;4480;52.370;9.748;2024-01-27T02:20:14;4.00;99.90
8888;DHT22;4480;52.370;9.748;2024-01-27T02:22:41;3.90;99.90
8888;DHT22;4480;52.370;9.748;2024-01-27T02:25:09;4.00;99.90
8888;DHT22;4480;52.370;9.748;2024-01-27T02:27:36;3.90;99.90
8888;DHT22;4480;52.370;9.748;2024-01-27T02:30:04;3.90;99.90
8888;DHT22;4480;52.370;9.748;2024-01-27T02:32:31;3.90;99.90
8888;DHT22;4480;52.370;9.748;2024-01-27T02:34:58;3.90;99.90
8888;DHT22;4480;52.370;9.748;2024-01-27T02:37:24;3.90;99.90
8888;DHT22;4480;52.370;9.748;2024-01-27T02:39:51;3.80;99.90
8888;DHT22;4480;52.370;9.748;2024-01-27T02:42:19;3.90;99.90
8888;DHT22;4480;52.370;9.748;2024-01-27T02:44:46;3.90;99.90
8888;DHT22;4480;52.370;9.748;2024-01-27T02:47:13;3.80;99.90
8888;DHT22;4480;52.370;9.748;2024-01-27T02:49:39;3.80;99.90
8888;DHT22;4480;52.370;9.748;2024-01-27T02:52:06;3.80;99.90
8888;DHT22;4480;52.370;9.748;2024-01-27T02:54:34;3.80;99.90
8888;DHT22;4480;52.370;9.748;2024-01-27T02:57:01;3.80;99.90
8888;DHT22;4480;52.370;9.748;2024-01-27T02:59:29;3.80;99.90
8888;DHT22;4480;52.370;9.748;2024-01-27T03:01:56;3.80;99.90
8888;DHT22;4480;52.370;9.748;2024-01-27T03:04:23;3.80;99.90
8888;DHT22;4480;52.370;9.748;2024-01-27T03:06:50;3.80;99.90
8888;DHT22;4480;52.370;9.748;2024-01-27T03:09:16;3.80;99.90
8888;DHT22;4480;52.370;9.748;2024-01-27T03:11:43;3.80;99.90
8888;DHT22;4480;52.370;9.748;2024-01-27T03:14:10;3.80;99.90
8888;DHT22;4480;52.370;9.748;2024-01-27T03:16:38;3.80;99.90
8888;DHT22;4480;52.370;9.748;2024-01-27T03:19:05;3.70;99.90
8888;DHT22;4480;52.370;9.748;2024-01-27T03:21:32;3.70;99.90
8888;DHT22;4480;52.370;9.748;2024-01-27T03:23:59;3.70;99.90
8888;DHT22;4480;52.370;9.748;2024-01-27T03:26:26;3.70;99.90
8888;DHT22;4480;52.370;9.748;2024-01-27T03:28:53;3.70;99.90
8888;DHT22;4480;52.370;9.748;2024-01-27T03:31:20;3.70;99.90
8888;DHT22;4480;52.370;9.748;2024-01-27T03:33:48;3.70;99.90
8888;DHT22;4480;52.370;9.748;2024-01-27T03:36:15;3.70;99.90
8888;DHT22;4480;52.370;9.748;2024-01-27T03:38:42;3.70;99.90
8888;DHT22;4480;52.370;9.748;2024-01-27T03:41:08;3.70;99.90
8888;DHT22;4480;52.370;9.748;2024-01-27T03:43:35;3.60;99.90
8888;DHT22;4480;52.370;9.748;2024-01-27T03:46:02;3.60;99.90
8888;DHT22;4480;52.370;9.748;2024-01-27T03:48:29;3.60;99.90
8888;DHT22;4480;52.370;9.748;2024-01-27T03:50:57;3.60;99.90
8888;DHT22;4480;52.370;9.748;2024-01-27T03:53:24;3.60;99.90
8888;DHT22;4480;52.370;9.748;2024-01-27T03:55:51;3.60;99.90
8888;DHT22;4480;52.370;9.748;2024-01-27T03:58:18;3.60;99.90
8888;DHT22;4480;52.370;9.748;2024-01-27T04:00:45;3.60;99.90
8888;DHT22;4480;52.370;9.748;2024-01-27T04:03:12;3.60;99.90
8888;DHT22;4480;52.370;9.748;2024-01-27T04:05:38;3.60;99.90
8888;DHT22;4480;52.370;9.748;2024-01-27T04:08:07;3.60;99.90
8888;DHT22;4480;52.370;9.748;2024-01-27T04:13:03;3.50;99.90
8888;DHT22;4480;52.370;9.748;2024-01-27T04:15:33;3.50;99.90
8888;DHT22;4480;52.370;9.748;2024-01-27T04:18:03;3.60;99.90
8888;DHT22;4480;52.370;9.748;2024-01-27T04:20:29;3.60;99.90
8888;DHT22;4480;52.370;9.748;2024-01-27T04:22:56;3.60;99.90
8888;DHT22;4480;52.370;9.748;2024-01-27T04:25:23;3.50;99.90
8888;DHT22;4480;52.370;9.748;2024-01-27T04:27:50;3.50;99.90
8888;DHT22;4480;52.370;9.748;2024-01-27T04:30:18;3.50;99.90
8888;DHT22;4480;52.370;9.748;2024-01-27T04:32:45;3.50;99.90
8888;DHT22;4480;52.370;9.748;2024-01-27T04:35:14;3.50;99.90
8888;DHT22;4480;52.370;9.748;2024-01-27T04:37:41;3.50;99.90
8888;DHT22;4480;52.370;9.748;2024-01-27T04:40:11;3.50;99.90
8888;DHT22;4480;52.370;9.748;2024-01-27T04:42:38;3.40;99.90
8888;DHT22;4480;52.370;9.748;2024-01-27T04:45:06;3.40;99.90
8888;DHT22;4480;52.370;9.748;2024-01-27T04:47:34;3.40;99.90
8888;DHT22;4480;52.370;9.748;2024-01-27T04:50:01;3.40;99.90
8888;DHT22;4480;52.370;9.748;2024-01-27T04:52:28;3.40;99.90
8888;DHT22;4480;52.370;9.748;2024-01-27T04:54:55;3.40;99.90
8888;DHT22;4480;52.370;9.748;2024-01-27T04:57:22;3.40;99.90
8888;DHT22;4480;52.370;9.748;2024-01-27T04:59:49;3.40;99.90
8888;DHT22;4480;52.370;9.748;2024-01-27T05:02:15;3.40;99.90
8888;DHT22;4480;52.370;9.748;2024-01-27T05:04:43;3.40;99.90
8888;DHT22;4480;52.370;9.748;2024-01-27T05:07:10;3.40;99.90
8888;DHT22;4480;52.370;9.748;2024-01-27T05:09:38;3.40;99.90
8888;DHT22;4480;52.370;9.748;2024-01-27T05:12:05;3.30;99.90
8888;DHT22;4480;52.370;9.748;2024-01-27T05:14:32;3.30;99.90
8888;DHT22;4480;52.370;9.748;2024-01-27T05:16:58;3.30;99.90
8888;DHT22;4480;52.370;9.748;2024-01-27T05:19:25;3.30;99.90
8888;DHT22;4480;52.370;9.748;2024-01-27T05:21:53;3.30;99.90
8888;DHT22;4480;52.370;9.748;2024-01-27T05:24:20;3.30;99.90
8888;DHT22;4480;52.370;9.748;2024-01-27T05:26:47;3.30;99.90
8888;DHT22;4480;52.370;9.748;2024-01-27T05:29:14;3.30;99.90
8888;DHT22;4480;52.370;9.748;2024-01-27T05:31:40;3.20;99.90
8888;DHT22;4480;52.370;9.748;2024-01-27T05:34:09;3.20;99.90
8888;DHT22;4480;52.370;9.748;2024-01-27T05:36:35;3.20;99.90
8888;DHT22;4480;52.370;9.748;2024-01-27T05:39:04;3.20;99.90
8888;DHT22;4480;52.370;9.748;2024-01-27T05:41:31;3.10;99.90
8888;DHT22;4480;52.370;9.748;2024-01-27T05:43:58;3.10;99.90
8888;DHT22;4480;52.370;9.748;2024-01-27T05:46:25;3.10;99.90
8888;DHT22;4480;52.370;9.748;2024-01-27T05:48:52;3.10;99.90
8888;DHT22;4480;52.370;9.748;2024-01-27T05:51:19;3.10;99.90
8888;DHT22;4480;52.370;9.748;2024-01-27T05:53:46;3.10;99.90
8888;DHT22;4480;52.370;9.748;2024-01-27T05:56:14;3.00;99.90
8888;DHT22;4480;52.370;9.748;2024-01-27T05:58:41;3.00;99.90
8888;DHT22;4480;52.370;9.748;2024-01-27T06:01:08;3.00;99.90
8888;DHT22;4480;52.370;9.748;2024-01-27T06:03:35;3.00;99.90
8888;DHT22;4480;52.370;9.748;2024-01-27T06:06:02;3.10;99.90
8888;DHT22;4480;52.370;9.748;2024-01-27T06:08:29;3.10;99.90
8888;DHT22;4480;52.370;9.748;2024-01-27T06:10:55;3.10;99.90
8888;DHT22;4480;52.370;9.748;2024-01-27T06:13:23;3.10;99.90
8888;DHT22;4480;52.370;9.748;2024-01-27T06:15:50;3.10;99.90
8888;DHT22;4480;52.370;9.748;2024-01-27T06:18:17;3.00;99.90
8888;DHT22;4480;52.370;9.748;2024-01-27T06:20:44;3.00;99.90
8888;DHT22;4480;52.370;9.748;2024-01-27T06:23:11;3.00;99.90
8888;DHT22;4480;52.370;9.748;2024-01-27T06:25:38;2.90;99.90
8888;DHT22;4480;52.370;9.748;2024-01-27T06:28:05;3.00;99.90
8888;DHT22;4480;52.370;9.748;2024-01-27T06:30:33;3.00;99.90
8888;DHT22;4480;52.370;9.748;2024-01-27T06:33:00;3.10;99.90
8888;DHT22;4480;52.370;9.748;2024-01-27T06:35:26;3.10;99.90
8888;DHT22;4480;52.370;9.748;2024-01-27T06:37:53;3.10;99.90
8888;DHT22;4480;52.370;9.748;2024-01-27T06:40:19;3.10;99.90
8888;DHT22;4480;52.370;9.748;2024-01-27T06:42:46;3.00;99.90
8888;DHT22;4480;52.370;9.748;2024-01-27T06:45:13;3.00;99.90
8888;DHT22;4480;52.370;9.748;2024-01-27T06:47:41;3.10;99.90
8888;DHT22;4480;52.370;9.748;2024-01-27T06:50:08;3.10;99.90
8888;DHT22;4480;52.370;9.748;2024-01-27T06:52:36;3.00;99.90
8888;DHT22;4480;52.370;9.748;2024-01-27T06:55:03;3.00;99.90
8888;DHT22;4480;52.370;9.748;2024-01-27T06:57:32;3.00;99.90
8888;DHT22;4480;52.370;9.748;2024-01-27T06:59:59;2.90;99.90
8888;DHT22;4480;52.370;9.748;2024-01-27T07:02:26;2.90;99.90
8888;DHT22;4480;52.370;9.748;2024-01-27T07:04:54;2.90;99.90
8888;DHT22;4480;52.370;9.748;2024-01-27T07:07:25;2.90;99.90
8888;DHT22;4480;52.370;9.748;2024-01-27T07:09:52;2.90;99.90
8888;DHT22;4480;52.370;9.748;2024-01-27T07:12:19;2.90;99.90
8888;DHT22;4480;52.370;9.748;2024-01-27T07:14:46;2.90;99.90
8888;DHT22;4480;52.370;9.748;2024-01-27T07:17:12;2.90;99.90
8888;DHT22;4480;52.370;9.748;2024-01-27T07:19:39;2.90;99.90
8888;DHT22;4480;52.370;9.748;2024-01-27T07:22:07;3.00;99.90
8888;DHT22;4480;52.370;9.748;2024-01-27T07:24:34;3.00;99.90
8888;DHT22;4480;52.370;9.748;2024-01-27T07:27:01;3.00;99.90
8888;DHT22;4480;52.370;9.748;2024-01-27T07:29:29;3.00;99.90
8888;DHT22;4480;52.370;9.748;2024-01-27T07:31:56;3.00;99.90
8888;DHT22;4480;52.370;9.748;2024-01-27T07:34:23;3.10;99.90
8888;DHT22;4480;52.370;9.748;2024-01-27T07:36:50;3.10;99.90
8888;DHT22;4480;52.370;9.748;2024-01-27T07:39:18;3.20;99.90
8888;DHT22;4480;52.370;9.748;2024-01-27T07:41:45;3.30;99.90
8888;DHT22;4480;52.370;9.748;2024-01-27T07:44:14;3.30;99.90
8888;DHT22;4480;52.370;9.748;2024-01-27T07:46:41;3.40;99.90
8888;DHT22;4480;52.370;9.748;2024-01-27T07:49:08;3.40;99.90
8888;DHT22;4480;52.370;9.748;2024-01-27T07:51:37;3.50;99.90
8888;DHT22;4480;52.370;9.748;2024-01-27T07:54:04;3.60;99.90
8888;DHT22;4480;52.370;9.748;2024-01-27T07:56:32;3.70;99.90
8888;DHT22;4480;52.370;9.748;2024-01-27T07:58:59;3.70;99.90
8888;DHT22;4480;52.370;9.748;2024-01-27T08:01:26;3.70;99.90
8888;DHT22;4480;52.370;9.748;2024-01-27T08:03:52;3.70;99.90
8888;DHT22;4480;52.370;9.748;2024-01-27T08:06:28;3.80;99.90
8888;DHT22;4480;52.370;9.748;2024-01-27T08:08:55;3.70;99.90
8888;DHT22;4480;52.370;9.748;2024-01-27T08:11:22;3.90;99.90
8888;DHT22;4480;52.370;9.748;2024-01-27T08:13:51;4.10;99.90
8888;DHT22;4480;52.370;9.748;2024-01-27T08:16:19;4.50;99.90
8888;DHT22;4480;52.370;9.748;2024-01-27T08:18:46;4.70;99.90
8888;DHT22;4480;52.370;9.748;2024-01-27T08:21:13;4.70;99.90
8888;DHT22;4480;52.370;9.748;2024-01-27T08:23:41;5.00;99.90
8888;DHT22;4480;52.370;9.748;2024-01-27T08:26:08;5.20;99.90
8888;DHT22;4480;52.370;9.748;2024-01-27T08:28:35;5.20;99.90
8888;DHT22;4480;52.370;9.748;2024-01-27T08:31:03;5.10;99.90
8888;DHT22;4480;52.370;9.748;2024-01-27T08:33:30;5.00;99.90
8888;DHT22;4480;52.370;9.748;2024-01-27T08:35:57;4.90;99.90
8888;DHT22;4480;52.370;9.748;2024-01-27T08:38:24;4.90;99.90
8888;DHT22;4480;52.370;9.748;2024-01-27T08:40:51;4.80;99.90
8888;DHT22;4480;52.370;9.748;2024-01-27T08:43:18;4.80;99.90
8888;DHT22;4480;52.370;9.748;2024-01-27T08:45:45;4.80;99.90
8888;DHT22;4480;52.370;9.748;2024-01-27T08:48:13;4.80;99.90
8888;DHT22;4480;52.370;9.748;2024-01-27T08:50:40;4.70;99.90
8888;DHT22;4480;52.370;9.748;2024-01-27T08:53:07;4.70;99.90
8888;DHT22;4480;52.370;9.748;2024-01-27T08:55:34;4.70;99.90
8888;DHT22;4480;52.370;9.748;2024-01-27T08:58:01;4.70;99.90
8888;DHT22;4480;52.370;9.748;2024-01-27T09:00:28;4.70;99.90
8888;DHT22;4480;52.370;9.748;2024-01-27T09:02:55;4.70;99.90
8888;DHT22;4480;52.370;9.748;2024-01-27T09:05:23;4.80;99.90
8888;DHT22;4480;52.370;9.748;2024-01-27T09:07:49;4.80;99.90
8888;DHT22;4480;52.370;9.748;2024-01-27T09:10:16;4.80;99.90
8888;DHT22;4480;52.370;9.748;2024-01-27T09:12:43;4.90;99.90
8888;DHT22;4480;52.370;9.748;2024-01-27T09:15:10;4.90;99.90
8888;DHT22;4480;52.370;9.748;2024-01-27T09:17:37;4.90;99.90
8888;DHT22;4480;52.370;9.748;2024-01-27T09:20:06;5.00;99.90
8888;DHT22;4480;52.370;9.748;2024-01-27T09:22:34;5.00;99.90
8888;DHT22;4480;52.370;9.748;2024-01-27T09:25:01;5.10;99.90
8888;DHT22;4480;52.370;9.748;2024-01-27T09:27:27;5.10;99.90
8888;DHT22;4480;52.370;9.748;2024-01-27T09:29:54;5.20;99.90
8888;DHT22;4480;52.370;9.748;2024-01-27T09:32:21;5.30;99.90
8888;DHT22;4480;52.370;9.748;2024-01-27T09:34:48;5.40;99.90
8888;DHT22;4480;52.370;9.748;2024-01-27T09:37:15;5.40;99.90
8888;DHT22;4480;52.370;9.748;2024-01-27T09:39:43;5.50;99.90
8888;DHT22;4480;52.370;9.748;2024-01-27T09:42:13;5.50;99.90
8888;DHT22;4480;52.370;9.748;2024-01-27T09:44:43;5.60;99.90
8888;DHT22;4480;52.370;9.748;2024-01-27T09:47:11;5.60;99.90
8888;DHT22;4480;52.370;9.748;2024-01-27T09:49:39;5.70;99.90
8888;DHT22;4480;52.370;9.748;2024-01-27T09:52:06;5.70;99.90
8888;DHT22;4480;52.370;9.748;2024-01-27T09:54:33;5.80;99.90
8888;DHT22;4480;52.370;9.748;2024-01-27T09:57:02;5.80;99.90
8888;DHT22;4480;52.370;9.748;2024-01-27T09:59:29;5.80;99.90
8888;DHT22;4480;52.370;9.748;2024-01-27T10:01:57;5.80;99.90
8888;DHT22;4480;52.370;9.748;2024-01-27T10:04:25;5.80;99.90
8888;DHT22;4480;52.370;9.748;2024-01-27T10:06:52;5.80;99.90
8888;DHT22;4480;52.370;9.748;2024-01-27T10:09:19;5.80;99.90
8888;DHT22;4480;52.370;9.748;2024-01-27T10:11:47;5.90;99.90
8888;DHT22;4480;52.370;9.748;2024-01-27T10:14:15;5.90;99.90
8888;DHT22;4480;52.370;9.748;2024-01-27T10:16:42;5.90;99.90
8888;DHT22;4480;52.370;9.748;2024-01-27T10:19:14;5.90;99.90
8888;DHT22;4480;52.370;9.748;2024-01-27T10:21:42;6.00;99.90
8888;DHT22;4480;52.370;9.748;2024-01-27T10:24:09;6.00;99.90
8888;DHT22;4480;52.370;9.748;2024-01-27T10:26:36;6.10;99.90
8888;DHT22;4480;52.370;9.748;2024-01-27T10:29:03;6.20;99.90
8888;DHT22;4480;52.370;9.748;2024-01-27T10:31:33;6.20;99.90
8888;DHT22;4480;52.370;9.748;2024-01-27T10:34:00;6.30;99.90
8888;DHT22;4480;52.370;9.748;2024-01-27T10:36:38;6.30;99.90
8888;DHT22;4480;52.370;9.748;2024-01-27T10:39:17;6.30;99.90
8888;DHT22;4480;52.370;9.748;2024-01-27T10:41:45;6.40;99.90
8888;DHT22;4480;52.370;9.748;2024-01-27T10:44:14;6.50;99.90
8888;DHT22;4480;52.370;9.748;2024-01-27T10:46:44;6.60;99.90
8888;DHT22;4480;52.370;9.748;2024-01-27T10:49:13;6.60;99.90
8888;DHT22;4480;52.370;9.748;2024-01-27T10:51:44;6.60;99.90
8888;DHT22;4480;52.370;9.748;2024-01-27T10:54:14;6.60;99.90
8888;DHT22;4480;52.370;9.748;2024-01-27T10:56:43;6.60;99.90
8888;DHT22;4480;52.370;9.748;2024-01-27T10:59:11;6.70;99.90
8888;DHT22;4480;52.370;9.748;2024-01-27T11:01:42;6.70;99.90
8888;DHT22;4480;52.370;9.748;2024-01-27T11:04:11;6.80;99.90
8888;DHT22;4480;52.370;9.748;2024-01-27T11:06:39;6.80;99.90
8888;DHT22;4480;52.370;9.748;2024-01-27T11:09:08;6.70;99.90
8888;DHT22;4480;52.370;9.748;2024-01-27T11:11:37;6.70;99.90
8888;DHT22;4480;52.370;9.748;2024-01-27T11:14:05;6.80;99.90
8888;DHT22;4480;52.370;9.748;2024-01-27T11:16:31;6.80;99.90
8888;DHT22;4480;52.370;9.748;2024-01-27T11:18:59;6.80;99.90
8888;DHT22;4480;52.370;9.748;2024-01-27T11:21:26;6.80;99.90
8888;DHT22;4480;52.370;9.748;2024-01-27T11:23:53;6.80;99.90
8888;DHT22;4480;52.370;9.748;2024-01-27T11:26:21;6.90;99.90
8888;DHT22;4480;52.370;9.748;2024-01-27T11:28:48;6.90;99.90
8888;DHT22;4480;52.370;9.748;2024-01-27T11:31:17;6.90;99.90
8888;DHT22;4480;52.370;9.748;2024-01-27T11:33:46;7.00;99.90
8888;DHT22;4480;52.370;9.748;2024-01-27T11:36:22;7.00;99.90
8888;DHT22;4480;52.370;9.748;2024-01-27T11:38:49;7.00;99.90
8888;DHT22;4480;52.370;9.748;2024-01-27T11:41:26;7.10;99.90
8888;DHT22;4480;52.370;9.748;2024-01-27T11:43:54;7.10;99.90
8888;DHT22;4480;52.370;9.748;2024-01-27T11:46:21;7.10;99.90
8888;DHT22;4480;52.370;9.748;2024-01-27T11:48:48;7.10;99.90
8888;DHT22;4480;52.370;9.748;2024-01-27T11:51:15;7.10;99.90
8888;DHT22;4480;52.370;9.748;2024-01-27T11:53:45;7.10;99.90
8888;DHT22;4480;52.370;9.748;2024-01-27T11:56:13;7.20;99.90
8888;DHT22;4480;52.370;9.748;2024-01-27T11:58:46;7.20;99.90
8888;DHT22;4480;52.370;9.748;2024-01-27T12:01:13;7.20;99.90
8888;DHT22;4480;52.370;9.748;2024-01-27T12:03:40;7.20;99.90
8888;DHT22;4480;52.370;9.748;2024-01-27T12:06:07;7.20;99.90
8888;DHT22;4480;52.370;9.748;2024-01-27T12:08:35;7.20;99.90
8888;DHT22;4480;52.370;9.748;2024-01-27T12:11:03;7.20;99.90
8888;DHT22;4480;52.370;9.748;2024-01-27T12:13:30;7.20;99.90
8888;DHT22;4480;52.370;9.748;2024-01-27T12:15:57;7.20;99.90
8888;DHT22;4480;52.370;9.748;2024-01-27T12:18:24;7.20;99.90
8888;DHT22;4480;52.370;9.748;2024-01-27T12:20:55;7.20;99.90
8888;DHT22;4480;52.370;9.748;2024-01-27T12:23:22;7.20;99.90
8888;DHT22;4480;52.370;9.748;2024-01-27T12:25:52;7.20;99.90
8888;DHT22;4480;52.370;9.748;2024-01-27T12:28:22;7.20;99.90
8888;DHT22;4480;52.370;9.748;2024-01-27T12:30:49;7.30;99.90
8888;DHT22;4480;52.370;9.748;2024-01-27T12:33:16;7.30;99.90
8888;DHT22;4480;52.370;9.748;2024-01-27T12:35:45;7.30;99.90
8888;DHT22;4480;52.370;9.748;2024-01-27T12:38:11;7.40;99.90
8888;DHT22;4480;52.370;9.748;2024-01-27T12:40:38;7.40;99.90
8888;DHT22;4480;52.370;9.748;2024-01-27T12:43:05;7.40;99.90
8888;DHT22;4480;52.370;9.748;2024-01-27T12:45:34;7.50;99.90
8888;DHT22;4480;52.370;9.748;2024-01-27T12:48:01;7.50;99.90
8888;DHT22;4480;52.370;9.748;2024-01-27T12:50:30;7.40;99.90
8888;DHT22;4480;52.370;9.748;2024-01-27T12:52:57;7.50;99.90
8888;DHT22;4480;52.370;9.748;2024-01-27T12:55:24;7.50;99.90
8888;DHT22;4480;52.370;9.748;2024-01-27T12:57:51;7.50;99.90
8888;DHT22;4480;52.370;9.748;2024-01-27T13:00:18;7.50;99.90
8888;DHT22;4480;52.370;9.748;2024-01-27T13:02:46;7.50;99.90
8888;DHT22;4480;52.370;9.748;2024-01-27T13:05:13;7.50;99.90
8888;DHT22;4480;52.370;9.748;2024-01-27T13:07:40;7.50;99.90
8888;DHT22;4480;52.370;9.748;2024-01-27T13:10:07;7.50;99.90
8888;DHT22;4480;52.370;9.748;2024-01-27T13:12:35;7.50;99.90
8888;DHT22;4480;52.370;9.748;2024-01-27T13:15:02;7.60;99.90
8888;DHT22;4480;52.370;9.748;2024-01-27T13:17:29;7.60;99.90
8888;DHT22;4480;52.370;9.748;2024-01-27T13:19:57;7.60;99.90
8888;DHT22;4480;52.370;9.748;2024-01-27T13:22:23;7.60;99.90
8888;DHT22;4480;52.370;9.748;2024-01-27T13:24:50;7.60;99.90
8888;DHT22;4480;52.370;9.748;2024-01-27T13:27:17;7.60;99.90
8888;DHT22;4480;52.370;9.748;2024-01-27T13:29:45;7.60;99.90
8888;DHT22;4480;52.370;9.748;2024-01-27T13:32:11;7.60;99.90
8888;DHT22;4480;52.370;9.748;2024-01-27T13:34:38;7.60;99.90
8888;DHT22;4480;52.370;9.748;2024-01-27T13:37:06;7.60;99.90
8888;DHT22;4480;52.370;9.748;2024-01-27T13:39:34;7.50;99.90
8888;DHT22;4480;52.370;9.748;2024-01-27T13:42:01;7.50;99.90
8888;DHT22;4480;52.370;9.748;2024-01-27T13:44:28;7.50;99.90
8888;DHT22;4480;52.370;9.748;2024-01-27T13:46:55;7.50;99.90
8888;DHT22;4480;52.370;9.748;2024-01-27T13:49:26;7.50;99.90
8888;DHT22;4480;52.370;9.748;2024-01-27T13:51:52;7.50;99.90
8888;DHT22;4480;52.370;9.748;2024-01-27T13:54:21;7.50;99.90
8888;DHT22;4480;52.370;9.748;2024-01-27T13:56:47;7.60;99.90
8888;DHT22;4480;52.370;9.748;2024-01-27T13:59:14;7.50;99.90
8888;DHT22;4480;52.370;9.748;2024-01-27T14:01:41;7.50;99.90
8888;DHT22;4480;52.370;9.748;2024-01-27T14:04:08;7.50;99.90
8888;DHT22;4480;52.370;9.748;2024-01-27T14:06:34;7.50;99.90
8888;DHT22;4480;52.370;9.748;2024-01-27T14:09:01;7.50;99.90
8888;DHT22;4480;52.370;9.748;2024-01-27T14:11:30;7.50;99.90
8888;DHT22;4480;52.370;9.748;2024-01-27T14:13:56;7.40;99.90
8888;DHT22;4480;52.370;9.748;2024-01-27T14:16:23;7.40;99.90
8888;DHT22;4480;52.370;9.748;2024-01-27T14:18:50;7.40;99.90
8888;DHT22;4480;52.370;9.748;2024-01-27T14:21:17;7.40;99.90
8888;DHT22;4480;52.370;9.748;2024-01-27T14:23:44;7.50;99.90
8888;DHT22;4480;52.370;9.748;2024-01-27T14:26:11;7.50;99.90
8888;DHT22;4480;52.370;9.748;2024-01-27T14:28:41;7.50;99.90
8888;DHT22;4480;52.370;9.748;2024-01-27T14:31:08;7.50;99.90
8888;DHT22;4480;52.370;9.748;2024-01-27T14:33:35;7.50;99.90
8888;DHT22;4480;52.370;9.748;2024-01-27T14:36:02;7.50;99.90
8888;DHT22;4480;52.370;9.748;2024-01-27T14:38:29;7.50;99.90
8888;DHT22;4480;52.370;9.748;2024-01-27T14:40:56;7.50;99.90
8888;DHT22;4480;52.370;9.748;2024-01-27T14:43:23;7.50;99.90
8888;DHT22;4480;52.370;9.748;2024-01-27T14:45:51;7.40;99.90
8888;DHT22;4480;52.370;9.748;2024-01-27T14:48:18;7.40;99.90
8888;DHT22;4480;52.370;9.748;2024-01-27T14:50:46;7.40;99.90
8888;DHT22;4480;52.370;9.748;2024-01-27T14:53:18;7.40;99.80
8888;DHT22;4480;52.370;9.748;2024-01-27T14:55:44;7.30;99.90
8888;DHT22;4480;52.370;9.748;2024-01-27T14:58:11;7.30;99.90
8888;DHT22;4480;52.370;9.748;2024-01-27T15:00:38;7.30;99.90
8888;DHT22;4480;52.370;9.748;2024-01-27T15:03:07;7.20;99.90
8888;DHT22;4480;52.370;9.748;2024-01-27T15:05:34;7.20;99.90
8888;DHT22;4480;52.370;9.748;2024-01-27T15:08:06;7.20;99.90
8888;DHT22;4480;52.370;9.748;2024-01-27T15:10:33;7.20;99.90
8888;DHT22;4480;52.370;9.748;2024-01-27T15:12:59;7.10;99.90
8888;DHT22;4480;52.370;9.748;2024-01-27T15:15:27;7.10;99.90
8888;DHT22;4480;52.370;9.748;2024-01-27T15:17:53;7.00;99.90
8888;DHT22;4480;52.370;9.748;2024-01-27T15:20:27;7.00;99.90
8888;DHT22;4480;52.370;9.748;2024-01-27T15:22:54;7.00;99.90
8888;DHT22;4480;52.370;9.748;2024-01-27T15:25:20;6.90;99.90
8888;DHT22;4480;52.370;9.748;2024-01-27T15:27:47;6.90;99.90
8888;DHT22;4480;52.370;9.748;2024-01-27T15:30:16;6.90;99.90
8888;DHT22;4480;52.370;9.748;2024-01-27T15:32:44;6.80;99.90
8888;DHT22;4480;52.370;9.748;2024-01-27T15:35:11;6.80;99.90
8888;DHT22;4480;52.370;9.748;2024-01-27T15:37:39;6.80;99.90
8888;DHT22;4480;52.370;9.748;2024-01-27T15:40:07;6.70;99.90
8888;DHT22;4480;52.370;9.748;2024-01-27T15:42:35;6.70;99.90
8888;DHT22;4480;52.370;9.748;2024-01-27T15:45:03;6.60;99.90
8888;DHT22;4480;52.370;9.748;2024-01-27T15:47:30;6.60;99.90
8888;DHT22;4480;52.370;9.748;2024-01-27T15:49:57;6.50;99.90
8888;DHT22;4480;52.370;9.748;2024-01-27T15:52:29;6.50;99.90
8888;DHT22;4480;52.370;9.748;2024-01-27T15:54:57;6.40;99.90
8888;DHT22;4480;52.370;9.748;2024-01-27T15:57:24;6.30;99.90
8888;DHT22;4480;52.370;9.748;2024-01-27T15:59:52;6.30;99.90
8888;DHT22;4480;52.370;9.748;2024-01-27T16:02:21;6.20;99.90
8888;DHT22;4480;52.370;9.748;2024-01-27T16:04:48;6.10;99.90
8888;DHT22;4480;52.370;9.748;2024-01-27T16:07:15;6.10;99.90
8888;DHT22;4480;52.370;9.748;2024-01-27T16:09:45;6.00;99.90
8888;DHT22;4480;52.370;9.748;2024-01-27T16:12:14;6.00;99.90
8888;DHT22;4480;52.370;9.748;2024-01-27T16:14:40;5.90;99.90
8888;DHT22;4480;52.370;9.748;2024-01-27T16:17:07;5.90;99.90
8888;DHT22;4480;52.370;9.748;2024-01-27T16:19:34;5.80;99.90